Time;durP1;ratioP1;P1;durP2;ratioP2;P2;SDS_P1;SDS_P2;PMS_P1;PMS_P2;Temp;Humidity;BMP_temperature;BMP_pressure;BME280_temperature;BME280_humidity;BME280_pressure;Samples;Min_cycle;Max_cycle;Signal;HPM_P1;HPM_P2
2022/08/04 00:01:03;;;;;;;3.00;2.70;;;26.20;60.30;;;;;;5011158;28;20476;-68
2022/08/04 00:03:40;;;;;;;3.72;2.80;;;26.20;60.20;;;;;;5010974;28;20407;-68
2022/08/04 00:06:18;;;;;;;3.17;2.67;;;26.20;60.20;;;;;;5011104;28;20484;-68
2022/08/04 00:08:51;;;;;;;4.25;2.90;;;26.20;60.40;;;;;;5010384;28;20914;-68
2022/08/04 00:11:22;;;;;;;3.83;2.60;;;26.20;60.40;;;;;;5014572;28;20427;-68
2022/08/04 00:14:05;;;;;;;3.20;2.80;;;26.20;60.50;;;;;;4996513;28;20443;-69
2022/08/04 00:16:40;;;;;;;4.10;2.80;;;26.20;60.40;;;;;;5014533;28;20381;-68
2022/08/04 00:19:32;;;;;;;4.18;2.83;;;26.20;60.30;;;;;;5014546;28;20397;-69
2022/08/04 00:22:04;;;;;;;3.30;2.70;;;26.20;60.20;;;;;;5013174;28;20395;-68
2022/08/04 00:24:31;;;;;;;3.00;2.53;;;26.20;60.20;;;;;;4985264;28;20395;-68
2022/08/04 00:26:57;;;;;;;3.87;2.50;;;26.20;60.20;;;;;;5003926;28;20481;-68
2022/08/04 00:29:24;;;;;;;4.53;2.70;;;26.20;60.20;;;;;;5004826;28;20437;-69
2022/08/04 00:31:50;;;;;;;5.80;2.83;;;26.20;60.20;;;;;;5001251;28;20418;-69
2022/08/04 00:34:16;;;;;;;2.90;2.50;;;26.20;60.30;;;;;;4986816;28;20393;-69
2022/08/04 00:36:42;;;;;;;2.95;2.53;;;26.20;60.30;;;;;;4986920;28;20972;-69
2022/08/04 00:39:12;;;;;;;3.30;2.70;;;26.20;60.20;;;;;;5002454;28;20377;-68
2022/08/04 00:41:37;;;;;;;2.87;2.60;;;26.20;60.20;;;;;;5003471;28;20910;-68
2022/08/04 00:44:24;;;;;;;3.33;2.60;;;26.20;60.20;;;;;;5003121;28;20456;-68
2022/08/04 00:46:52;;;;;;;3.33;2.55;;;26.10;60.10;;;;;;5005461;28;20937;-68
2022/08/04 00:49:38;;;;;;;3.37;2.60;;;26.10;60.10;;;;;;5003616;28;20397;-69
2022/08/04 00:52:21;;;;;;;3.17;2.47;;;26.20;60.20;;;;;;5003418;28;20427;-68
2022/08/04 00:55:19;;;;;;;3.13;2.67;;;26.10;60.10;;;;;;5004955;28;20409;-69
2022/08/04 00:58:10;;;;;;;3.67;2.67;;;26.20;60.10;;;;;;4974869;28;20476;-68
2022/08/04 01:01:01;;;;;;;3.28;2.80;;;26.10;60.10;;;;;;5003325;28;20397;-68
2022/08/04 01:03:45;;;;;;;3.10;2.63;;;26.10;60.10;;;;;;5013045;28;20393;-68
2022/08/04 01:06:17;;;;;;;2.85;2.53;;;26.10;60.10;;;;;;5013705;28;20404;-68
2022/08/04 01:08:51;;;;;;;3.63;2.60;;;26.10;60.10;;;;;;4996015;28;20412;-68
2022/08/04 01:11:51;;;;;;;2.90;2.50;;;26.10;60.00;;;;;;5013387;28;20543;-68
2022/08/04 01:14:36;;;;;;;3.05;2.75;;;26.10;60.10;;;;;;4995808;28;20542;-72
2022/08/04 01:17:36;;;;;;;2.85;2.55;;;26.10;60.00;;;;;;4995852;28;20503;-69
2022/08/04 01:20:07;;;;;;;3.17;2.60;;;26.10;60.00;;;;;;5006467;28;20421;-68
2022/08/04 01:22:32;;;;;;;3.10;2.80;;;26.10;60.00;;;;;;4995574;28;20751;-68
2022/08/04 01:25:22;;;;;;;3.40;2.87;;;26.10;60.00;;;;;;5013236;28;20392;-68
2022/08/04 01:28:09;;;;;;;2.80;2.60;;;26.00;59.90;;;;;;5012779;28;20416;-69
2022/08/04 01:30:36;;;;;;;2.97;2.72;;;26.10;59.90;;;;;;5013066;28;20404;-70
2022/08/04 01:33:07;;;;;;;3.17;2.67;;;26.00;59.90;;;;;;5013103;28;20396;-69
2022/08/04 01:35:55;;;;;;;2.90;2.70;;;26.00;59.80;;;;;;4995293;28;20397;-68
2022/08/04 01:38:37;;;;;;;2.85;2.60;;;26.00;59.80;;;;;;5013048;28;20868;-68
2022/08/04 01:41:06;;;;;;;3.20;2.70;;;26.00;59.80;;;;;;5012629;28;20487;-68
2022/08/04 01:43:34;;;;;;;2.90;2.53;;;26.00;59.80;;;;;;4995059;28;20389;-69
2022/08/04 01:46:02;;;;;;;2.85;2.50;;;26.00;59.90;;;;;;4995013;28;20397;-69
2022/08/04 01:48:28;;;;;;;2.67;2.42;;;26.00;59.80;;;;;;4995370;28;20401;-69
2022/08/04 01:50:58;;;;;;;2.72;2.53;;;26.00;59.90;;;;;;5012862;28;20408;-69
2022/08/04 01:53:36;;;;;;;2.95;2.65;;;26.00;59.80;;;;;;5012465;28;20408;-69
2022/08/04 01:56:04;;;;;;;2.73;2.53;;;26.00;59.80;;;;;;5012723;28;20470;-69
2022/08/04 01:58:32;;;;;;;2.95;2.65;;;26.00;59.80;;;;;;4995040;28;20860;-69
2022/08/04 02:01:04;;;;;;;3.20;2.88;;;26.00;59.80;;;;;;4995063;28;20483;-68
2022/08/04 02:03:31;;;;;;;3.03;2.83;;;26.00;59.70;;;;;;5012631;28;20392;-69
2022/08/04 02:06:34;;;;;;;3.17;2.88;;;26.00;59.70;;;;;;5012160;28;20385;-68
2022/08/04 02:09:35;;;;;;;3.55;2.90;;;26.00;59.70;;;;;;5012440;28;20551;-68
2022/08/04 02:12:17;;;;;;;3.03;2.72;;;26.00;59.90;;;;;;4963792;28;20443;-68
2022/08/04 02:14:58;;;;;;;2.70;2.50;;;26.00;60.20;;;;;;5012429;28;20561;-69
2022/08/04 02:17:30;;;;;;;3.03;2.72;;;26.00;59.70;;;;;;5012276;28;20400;-68
2022/08/04 02:20:22;;;;;;;2.97;2.60;;;26.00;59.80;;;;;;4994315;28;20393;-68
2022/08/04 02:23:00;;;;;;;3.00;2.40;;;26.00;59.70;;;;;;5012207;28;20416;-68
2022/08/04 02:25:27;;;;;;;3.30;3.00;;;26.00;59.70;;;;;;5012148;28;20455;-68
2022/08/04 02:28:18;;;;;;;2.78;2.58;;;25.90;59.60;;;;;;4994186;28;20447;-68
2022/08/04 02:31:27;;;;;;;3.03;2.72;;;26.00;59.60;;;;;;5007425;28;20401;-68
2022/08/04 02:34:31;;;;;;;3.30;3.00;;;26.00;59.70;;;;;;4974103;28;20463;-68
2022/08/04 02:36:58;;;;;;;3.10;2.80;;;26.00;59.70;;;;;;5011089;28;20416;-71
2022/08/04 02:39:28;;;;;;;2.95;2.75;;;25.90;59.50;;;;;;5012358;28;20475;-68
2022/08/04 02:41:55;;;;;;;3.10;2.80;;;25.90;59.50;;;;;;5012341;28;20467;-68
2022/08/04 02:44:22;;;;;;;3.00;2.80;;;26.00;59.60;;;;;;4994334;28;20504;-68
2022/08/04 02:46:51;;;;;;;2.97;2.72;;;25.90;59.60;;;;;;5011957;28;20380;-68
2022/08/04 02:49:17;;;;;;;2.88;2.60;;;25.90;59.50;;;;;;5011868;28;20447;-68
2022/08/04 02:51:50;;;;;;;3.30;3.00;;;25.90;59.50;;;;;;4994226;28;20425;-68
2022/08/04 02:54:18;;;;;;;3.20;2.88;;;25.90;59.50;;;;;;5011735;28;20384;-68
2022/08/04 02:56:45;;;;;;;3.10;2.80;;;25.90;59.40;;;;;;5007971;28;20414;-68
2022/08/04 02:59:12;;;;;;;3.33;3.03;;;25.90;59.40;;;;;;5003008;28;20401;-69
2022/08/04 03:01:41;;;;;;;2.95;2.50;;;25.90;59.50;;;;;;5003063;28;20396;-71
2022/08/04 03:04:19;;;;;;;3.30;3.00;;;25.90;59.40;;;;;;5005631;28;20443;-73
2022/08/04 03:07:11;;;;;;;3.40;3.10;;;25.90;59.40;;;;;;5002731;28;20745;-70
2022/08/04 03:09:58;;;;;;;3.83;3.08;;;25.90;59.70;;;;;;5002330;28;20539;-69
2022/08/04 03:12:55;;;;;;;2.90;2.70;;;25.90;59.80;;;;;;5002701;28;20414;-73
2022/08/04 03:15:50;;;;;;;2.78;2.47;;;25.90;60.20;;;;;;5002495;28;20469;-68
2022/08/04 03:18:31;;;;;;;6.70;2.78;;;25.90;60.30;;;;;;4985980;28;20393;-70
2022/08/04 03:21:45;;;;;;;5.32;3.05;;;25.90;62.80;;;;;;5002432;28;20384;-72
2022/08/04 03:24:27;;;;;;;7.05;3.13;;;26.00;63.40;;;;;;4974765;28;20477;-72
2022/08/04 03:27:21;;;;;;;7.63;2.90;;;26.10;64.40;;;;;;5010094;28;20424;-68
2022/08/04 03:30:00;;;;;;;4.10;2.70;;;26.20;63.90;;;;;;5011099;28;20895;-69
2022/08/04 03:32:48;;;;;;;8.07;2.92;;;26.20;63.60;;;;;;5011162;28;20424;-69
2022/08/04 03:35:37;;;;;;;9.30;3.03;;;26.20;64.40;;;;;;5000845;28;20413;-69
2022/08/04 03:38:18;;;;;;;8.77;3.17;;;26.20;64.60;;;;;;5009268;28;20814;-69
2022/08/04 03:41:02;;;;;;;8.65;3.20;;;26.20;64.40;;;;;;4997345;28;20876;-71
2022/08/04 03:43:49;;;;;;;7.50;3.03;;;26.30;64.60;;;;;;5010334;28;20401;-68
2022/08/04 03:46:35;;;;;;;5.22;2.97;;;26.20;63.90;;;;;;5014787;28;20431;-68
2022/08/04 03:49:13;;;;;;;5.80;3.10;;;26.20;63.00;;;;;;5014669;28;20958;-68
2022/08/04 03:55:00;;;;;;;6.35;2.95;;;26.20;62.40;;;;;;4996086;28;20494;-69
2022/08/04 03:57:47;;;;;;;5.53;2.90;;;26.20;62.20;;;;;;4995070;28;20759;-69
2022/08/04 04:00:29;;;;;;;5.07;3.00;;;26.20;62.10;;;;;;4993572;28;20959;-69
2022/08/04 04:03:06;;;;;;;3.80;2.40;;;26.20;61.80;;;;;;4995122;28;20440;-68
2022/08/04 04:05:50;;;;;;;4.00;2.58;;;26.20;61.70;;;;;;4993714;28;20387;-68
2022/08/04 04:08:37;;;;;;;4.30;2.58;;;26.20;61.50;;;;;;4993511;28;20457;-68
2022/08/04 04:11:18;;;;;;;5.05;2.67;;;26.20;61.70;;;;;;4993557;28;20496;-68
2022/08/04 04:14:14;;;;;;;4.22;2.50;;;26.20;61.50;;;;;;4997269;28;20498;-68
2022/08/04 04:17:27;;;;;;;4.43;2.83;;;26.20;61.30;;;;;;5004522;28;20393;-69
2022/08/04 04:20:22;;;;;;;3.58;2.80;;;26.20;61.20;;;;;;4950460;28;20407;-68
2022/08/04 04:23:02;;;;;;;5.22;2.83;;;26.20;60.40;;;;;;5005651;28;20413;-71
2022/08/04 04:25:59;;;;;;;4.90;3.00;;;26.20;60.70;;;;;;5003703;28;20397;-69
2022/08/04 04:28:34;;;;;;;6.03;2.70;;;26.20;60.50;;;;;;4986227;28;20451;-68
2022/08/04 04:31:14;;;;;;;4.93;2.90;;;26.10;60.80;;;;;;5002803;28;20416;-69
2022/08/04 04:33:53;;;;;;;5.80;2.95;;;26.10;60.50;;;;;;5007124;28;20777;-70
2022/08/04 04:36:52;;;;;;;9.70;3.13;;;26.10;59.80;;;;;;5004007;28;20409;-72
2022/08/04 04:39:29;;;;;;;5.20;3.10;;;26.10;59.40;;;;;;4978540;28;20734;-68
2022/08/04 04:41:58;;;;;;;4.53;3.03;;;26.00;59.00;;;;;;4986184;28;20397;-69
2022/08/04 04:44:53;;;;;;;7.35;3.22;;;26.00;57.90;;;;;;5003196;28;20390;-71
2022/08/04 04:47:53;;;;;;;7.30;3.38;;;25.90;57.80;;;;;;5003929;28;20398;-69
2022/08/04 04:50:54;;;;;;;9.85;3.58;;;25.90;57.90;;;;;;5005325;28;20403;-68
2022/08/04 04:53:39;;;;;;;9.65;3.67;;;25.90;57.60;;;;;;4987932;28;20395;-69
2022/08/04 04:56:25;;;;;;;8.50;3.72;;;25.90;58.10;;;;;;5003180;28;20923;-69
2022/08/04 04:58:53;;;;;;;8.50;3.97;;;25.90;58.10;;;;;;5002463;28;20406;-70
2022/08/04 05:01:33;;;;;;;9.27;3.55;;;25.80;57.90;;;;;;5003249;28;20447;-70
2022/08/04 05:04:20;;;;;;;6.35;3.70;;;25.80;57.80;;;;;;5003265;28;20765;-70
2022/08/04 05:06:58;;;;;;;6.03;3.33;;;25.80;58.00;;;;;;5002430;28;20483;-69
2022/08/04 05:09:31;;;;;;;6.35;3.53;;;25.80;58.10;;;;;;5002176;28;20840;-71
2022/08/04 05:12:02;;;;;;;5.65;3.72;;;25.80;58.30;;;;;;5001756;28;20432;-69
2022/08/04 05:14:33;;;;;;;6.63;3.47;;;25.80;58.30;;;;;;5003245;28;20470;-71
2022/08/04 05:17:17;;;;;;;6.35;3.50;;;25.80;58.50;;;;;;5003478;28;20483;-71
2022/08/04 05:19:49;;;;;;;6.85;3.47;;;25.80;58.50;;;;;;5007265;28;20381;-69
2022/08/04 05:22:24;;;;;;;5.95;3.42;;;25.80;58.60;;;;;;4985793;28;20400;-69
2022/08/04 05:25:00;;;;;;;6.07;3.60;;;25.80;58.70;;;;;;4985666;28;20434;-71
2022/08/04 05:27:38;;;;;;;6.25;3.50;;;25.80;58.80;;;;;;5002194;28;20397;-71
2022/08/04 05:30:05;;;;;;;5.55;3.28;;;25.80;58.70;;;;;;5001921;28;20918;-69
2022/08/04 05:32:57;;;;;;;6.00;3.33;;;25.80;58.80;;;;;;5001017;28;20418;-69
2022/08/04 05:35:48;;;;;;;6.13;3.20;;;25.80;58.90;;;;;;5007946;28;20420;-69
2022/08/04 05:38:18;;;;;;;6.13;3.20;;;25.80;58.90;;;;;;5012935;28;20401;-69
2022/08/04 05:40:45;;;;;;;5.78;3.50;;;25.80;58.90;;;;;;5013081;28;20404;-68
2022/08/04 05:43:12;;;;;;;5.15;3.28;;;25.80;59.00;;;;;;5012868;28;20396;-69
2022/08/04 05:45:39;;;;;;;6.05;3.20;;;25.80;59.00;;;;;;5013011;28;20424;-69
2022/08/04 05:48:07;;;;;;;5.03;3.20;;;25.80;59.00;;;;;;5012363;28;20425;-69
2022/08/04 05:50:34;;;;;;;5.80;3.03;;;25.80;59.10;;;;;;5012876;28;20746;-69
2022/08/04 05:53:01;;;;;;;3.95;3.10;;;25.80;59.20;;;;;;4994828;28;20432;-68
2022/08/04 05:55:29;;;;;;;4.37;3.03;;;25.80;59.20;;;;;;5012932;28;20385;-69
2022/08/04 05:57:55;;;;;;;3.47;3.10;;;25.80;59.20;;;;;;5010933;28;20761;-69
2022/08/04 06:00:23;;;;;;;4.70;3.17;;;25.80;59.20;;;;;;5012622;28;20396;-69
2022/08/04 06:02:51;;;;;;;4.20;3.20;;;25.80;59.30;;;;;;5012661;28;20896;-70
2022/08/04 06:05:17;;;;;;;4.90;3.15;;;25.80;59.30;;;;;;5012488;28;20943;-69
2022/08/04 06:07:44;;;;;;;6.37;3.40;;;25.80;59.30;;;;;;5012073;28;20401;-69
2022/08/04 06:10:10;;;;;;;5.38;3.40;;;25.80;59.40;;;;;;5011916;28;20877;-69
2022/08/04 06:12:42;;;;;;;6.57;3.65;;;25.80;59.40;;;;;;5012371;28;20424;-69
2022/08/04 06:15:12;;;;;;;6.18;3.30;;;25.80;59.40;;;;;;5012332;28;20447;-69
2022/08/04 06:17:54;;;;;;;5.97;3.58;;;25.80;59.50;;;;;;5012370;28;20839;-69
2022/08/04 06:20:22;;;;;;;5.80;3.55;;;25.80;59.50;;;;;;4994499;28;20400;-69
2022/08/04 06:22:53;;;;;;;6.28;3.80;;;25.80;59.50;;;;;;5012263;28;20400;-69
2022/08/04 06:25:22;;;;;;;6.10;3.70;;;25.90;59.60;;;;;;5011031;28;20516;-69
2022/08/04 06:27:49;;;;;;;6.93;3.63;;;25.80;59.60;;;;;;5011930;28;20410;-69
2022/08/04 06:30:18;;;;;;;4.80;3.57;;;25.90;59.60;;;;;;4994346;28;20972;-69
2022/08/04 06:32:54;;;;;;;5.45;3.40;;;25.90;59.60;;;;;;5012058;28;20427;-69
2022/08/04 06:35:20;;;;;;;5.47;3.60;;;25.90;59.60;;;;;;5010845;28;20397;-69
2022/08/04 06:37:47;;;;;;;5.47;3.45;;;25.90;59.60;;;;;;5011961;28;20456;-70
2022/08/04 06:40:14;;;;;;;5.20;3.20;;;26.00;59.60;;;;;;5011462;28;20804;-69
2022/08/04 06:42:41;;;;;;;5.28;3.58;;;26.00;59.60;;;;;;5012066;28;20475;-69
2022/08/04 06:45:09;;;;;;;4.47;3.17;;;26.00;59.60;;;;;;5011868;28;20396;-70
2022/08/04 06:47:36;;;;;;;5.40;3.30;;;26.00;59.60;;;;;;5010645;28;20924;-69
2022/08/04 06:50:04;;;;;;;4.80;3.10;;;26.00;59.60;;;;;;5011363;28;20410;-68
2022/08/04 06:52:30;;;;;;;4.90;3.00;;;26.00;59.60;;;;;;4994093;28;20420;-69
2022/08/04 06:54:56;;;;;;;4.97;3.00;;;26.00;59.60;;;;;;5011853;28;20385;-69
2022/08/04 06:57:27;;;;;;;5.20;3.28;;;26.00;59.50;;;;;;5011818;28;20872;-68
2022/08/04 07:00:00;;;;;;;4.15;3.33;;;26.00;59.50;;;;;;5011643;28;20484;-68
2022/08/04 07:02:29;;;;;;;4.82;3.30;;;26.00;59.60;;;;;;4993944;28;20971;-69
2022/08/04 07:04:55;;;;;;;5.20;3.40;;;26.00;59.60;;;;;;5010524;28;20480;-69
2022/08/04 07:07:23;;;;;;;4.13;3.13;;;26.00;59.60;;;;;;4993642;28;20428;-69
2022/08/04 07:09:50;;;;;;;5.10;3.03;;;26.00;59.60;;;;;;5011114;28;20396;-69
2022/08/04 07:12:20;;;;;;;4.82;3.10;;;26.00;59.60;;;;;;5010082;28;20447;-69
2022/08/04 07:14:47;;;;;;;3.40;3.00;;;26.00;59.70;;;;;;5011786;28;20903;-69
2022/08/04 07:17:14;;;;;;;4.30;3.00;;;26.00;59.70;;;;;;5011615;28;20488;-69
2022/08/04 07:19:40;;;;;;;3.72;2.90;;;26.00;59.80;;;;;;5013928;28;20389;-69
2022/08/04 07:22:07;;;;;;;4.13;2.90;;;26.00;59.70;;;;;;5015180;28;20404;-69
2022/08/04 07:24:36;;;;;;;4.75;3.13;;;26.00;59.90;;;;;;5015605;28;20388;-69
2022/08/04 07:27:04;;;;;;;3.72;3.10;;;26.00;59.70;;;;;;5015483;28;20401;-70
2022/08/04 07:29:29;;;;;;;4.15;2.83;;;26.00;59.70;;;;;;5015466;28;20381;-69
2022/08/04 07:31:57;;;;;;;3.70;3.00;;;26.00;59.70;;;;;;5015132;28;20417;-69
2022/08/04 07:34:24;;;;;;;4.20;2.87;;;26.00;59.70;;;;;;5015399;28;20502;-69
2022/08/04 07:36:54;;;;;;;3.72;2.85;;;26.00;59.70;;;;;;5015075;28;20409;-69
2022/08/04 07:39:21;;;;;;;3.70;2.70;;;26.00;59.80;;;;;;5015204;28;20393;-69
2022/08/04 07:41:47;;;;;;;3.58;2.47;;;26.00;59.80;;;;;;5013983;28;20385;-69
2022/08/04 07:44:14;;;;;;;3.58;2.80;;;26.00;59.80;;;;;;5014650;28;20479;-69
2022/08/04 07:46:41;;;;;;;4.53;2.97;;;26.00;59.80;;;;;;5015128;28;20393;-68
2022/08/04 07:49:07;;;;;;;3.80;2.80;;;26.00;59.70;;;;;;5015052;28;20523;-69
2022/08/04 07:51:35;;;;;;;4.55;3.05;;;26.00;59.80;;;;;;5015045;28;20412;-69
2022/08/04 07:54:06;;;;;;;3.42;3.00;;;26.00;60.00;;;;;;5014166;28;20873;-69
2022/08/04 07:56:34;;;;;;;5.55;3.20;;;26.00;59.80;;;;;;5014852;28;20404;-69
2022/08/04 07:59:00;;;;;;;4.83;3.30;;;26.00;59.80;;;;;;5014903;28;20388;-69
2022/08/04 08:01:27;;;;;;;5.22;3.50;;;26.10;59.90;;;;;;4997368;28;20397;-69
2022/08/04 08:03:55;;;;;;;4.45;3.13;;;26.00;59.80;;;;;;5014600;28;20404;-69
2022/08/04 08:06:22;;;;;;;5.22;3.30;;;26.00;59.80;;;;;;5014563;28;20479;-69
2022/08/04 08:08:47;;;;;;;4.50;3.28;;;26.00;59.80;;;;;;5014750;28;20389;-68
2022/08/04 08:11:15;;;;;;;4.75;3.10;;;26.00;59.80;;;;;;5014692;28;20451;-69
2022/08/04 08:13:42;;;;;;;5.65;3.58;;;26.10;59.90;;;;;;5014656;28;20734;-69
2022/08/04 08:16:08;;;;;;;5.70;3.60;;;26.00;60.00;;;;;;5014163;28;20435;-69
2022/08/04 08:18:34;;;;;;;6.40;3.53;;;26.00;59.80;;;;;;5014525;28;20411;-69
2022/08/04 08:21:00;;;;;;;4.40;3.45;;;26.10;59.90;;;;;;5014556;28;20753;-69
2022/08/04 08:23:30;;;;;;;7.05;3.65;;;26.00;59.80;;;;;;5014442;28;20396;-69
2022/08/04 08:25:57;;;;;;;6.93;3.70;;;26.10;59.90;;;;;;5014235;28;20389;-69
2022/08/04 08:28:23;;;;;;;6.65;3.53;;;26.10;59.90;;;;;;5014089;28;21070;-69
2022/08/04 08:30:49;;;;;;;9.25;4.00;;;26.10;59.80;;;;;;5013685;28;20419;-69
2022/08/04 08:33:16;;;;;;;8.27;3.77;;;26.10;59.90;;;;;;5014282;28;20433;-69
2022/08/04 08:36:06;;;;;;;8.52;4.65;;;26.10;59.80;;;;;;5014180;28;20381;-69
2022/08/04 08:38:41;;;;;;;15.55;4.95;;;26.10;59.90;;;;;;5012963;28;20416;-69
2022/08/04 08:41:48;;;;;;;13.85;4.97;;;26.10;61.40;;;;;;5014145;28;20444;-69
2022/08/04 08:44:13;;;;;;;12.85;5.05;;;26.20;62.20;;;;;;4934072;29;20470;-68
2022/08/04 08:46:53;;;;;;;13.23;5.33;;;26.20;62.10;;;;;;4934582;29;20514;-69
2022/08/04 08:49:47;;;;;;;13.23;4.70;;;26.20;61.80;;;;;;4980106;28;20401;-68
2022/08/04 08:52:51;;;;;;;13.30;5.20;;;26.20;61.70;;;;;;5013469;28;20447;-68
2022/08/04 08:55:49;;;;;;;12.82;5.20;;;26.20;61.60;;;;;;5013392;28;20385;-69
2022/08/04 08:58:17;;;;;;;14.30;5.30;;;26.20;61.50;;;;;;4969261;28;20396;-69
2022/08/04 09:01:20;;;;;;;14.57;5.30;;;26.20;60.90;;;;;;4996217;28;20401;-69
2022/08/04 09:04:31;;;;;;;21.73;5.87;;;26.20;61.60;;;;;;5012569;28;20510;-68
2022/08/04 09:07:16;;;;;;;20.98;6.18;;;26.20;61.60;;;;;;5012624;28;20451;-69
2022/08/04 09:09:48;;;;;;;17.10;5.68;;;26.20;61.20;;;;;;5013559;28;20389;-68
2022/08/04 09:12:45;;;;;;;16.60;5.60;;;26.20;61.10;;;;;;5013032;28;20432;-68
2022/08/04 09:15:15;;;;;;;18.17;5.70;;;26.30;61.20;;;;;;4995845;28;20957;-69
2022/08/04 09:18:00;;;;;;;14.93;5.88;;;26.20;60.80;;;;;;5013588;28;20385;-69
2022/08/04 09:20:48;;;;;;;15.93;5.25;;;26.20;60.90;;;;;;4995699;28;20400;-69
2022/08/04 09:23:19;;;;;;;12.47;5.03;;;26.30;60.80;;;;;;5013388;28;20397;-69
2022/08/04 09:26:22;;;;;;;10.35;5.22;;;26.20;60.80;;;;;;5013385;28;20448;-69
2022/08/04 09:28:52;;;;;;;11.25;5.28;;;26.20;60.70;;;;;;5013361;28;20492;-68
2022/08/04 09:31:23;;;;;;;12.85;5.22;;;26.30;60.60;;;;;;5013162;28;20440;-68
2022/08/04 09:34:03;;;;;;;14.25;5.25;;;26.30;60.70;;;;;;5013251;28;20401;-70
2022/08/04 09:36:48;;;;;;;11.80;5.10;;;26.30;60.70;;;;;;5011723;28;20415;-69
2022/08/04 09:39:27;;;;;;;10.52;4.50;;;26.30;60.60;;;;;;4995282;28;20913;-68
2022/08/04 09:42:11;;;;;;;11.82;5.40;;;26.20;60.60;;;;;;5010406;28;20400;-69
2022/08/04 09:45:06;;;;;;;10.60;5.22;;;26.30;60.50;;;;;;5012759;28;20404;-69
2022/08/04 09:47:38;;;;;;;12.38;5.00;;;26.30;60.50;;;;;;4995363;28;20439;-68
2022/08/04 09:50:19;;;;;;;11.25;4.93;;;26.20;60.40;;;;;;5011113;28;20808;-69
2022/08/04 09:53:09;;;;;;;10.52;4.68;;;26.30;60.40;;;;;;4995131;28;20428;-68
2022/08/04 09:55:45;;;;;;;10.50;4.85;;;26.30;60.40;;;;;;5012736;28;20896;-68
2022/08/04 09:58:23;;;;;;;10.07;4.63;;;26.20;60.30;;;;;;5012238;28;20385;-69
2022/08/04 10:00:57;;;;;;;9.98;4.80;;;26.30;60.30;;;;;;5012749;28;20393;-69
2022/08/04 10:03:25;;;;;;;9.30;4.37;;;26.30;60.20;;;;;;5012629;28;20736;-68
2022/08/04 10:06:00;;;;;;;8.55;4.28;;;26.30;60.20;;;;;;5011297;28;20450;-69
2022/08/04 10:08:38;;;;;;;8.90;4.68;;;26.30;60.30;;;;;;5012302;28;20392;-68
2022/08/04 10:11:15;;;;;;;8.10;4.30;;;26.30;60.30;;;;;;4994630;28;20404;-69
2022/08/04 10:14:07;;;;;;;9.13;4.50;;;26.30;60.20;;;;;;5012061;28;20885;-71
2022/08/04 10:16:51;;;;;;;9.18;4.45;;;26.30;60.20;;;;;;4964698;28;20384;-71
2022/08/04 10:19:30;;;;;;;9.52;4.47;;;26.30;60.50;;;;;;4994674;28;20408;-68
2022/08/04 10:22:19;;;;;;;10.80;4.25;;;26.30;60.40;;;;;;5012342;28;20396;-69
2022/08/04 10:25:28;;;;;;;10.52;4.18;;;26.30;60.50;;;;;;5012305;28;20385;-69
2022/08/04 10:27:58;;;;;;;8.87;4.30;;;26.30;60.40;;;;;;4932617;29;20395;-69
2022/08/04 10:30:27;;;;;;;6.95;4.00;;;26.30;60.20;;;;;;4932150;29;20399;-68
2022/08/04 10:33:01;;;;;;;8.57;3.72;;;26.30;60.30;;;;;;4976210;28;20431;-69
2022/08/04 10:35:32;;;;;;;8.30;3.97;;;26.30;60.30;;;;;;5012135;28;20446;-69
2022/08/04 10:38:24;;;;;;;9.57;4.00;;;26.30;60.20;;;;;;5012008;28;20412;-68
2022/08/04 10:41:12;;;;;;;9.00;3.80;;;26.30;60.60;;;;;;5001284;28;20412;-68
2022/08/04 10:44:03;;;;;;;8.95;4.03;;;26.30;60.40;;;;;;5011643;28;20388;-68
2022/08/04 10:46:34;;;;;;;8.85;4.00;;;26.30;60.40;;;;;;4997632;28;20416;-68
2022/08/04 10:49:13;;;;;;;10.52;4.18;;;26.30;60.20;;;;;;5011859;28;20408;-68
2022/08/04 10:52:01;;;;;;;10.27;4.30;;;26.40;60.30;;;;;;5011592;28;20889;-68
2022/08/04 10:54:30;;;;;;;12.80;4.38;;;26.40;60.20;;;;;;4993590;28;20756;-68
2022/08/04 10:57:05;;;;;;;11.30;4.53;;;26.40;60.30;;;;;;4994012;28;20422;-68
2022/08/04 10:59:44;;;;;;;7.10;4.40;;;26.40;60.00;;;;;;4994237;28;20484;-68
2022/08/04 11:02:45;;;;;;;10.10;4.37;;;26.40;60.20;;;;;;4993637;28;20396;-68
2022/08/04 11:05:27;;;;;;;8.27;4.53;;;26.40;60.10;;;;;;5011349;28;20447;-68
2022/08/04 11:08:03;;;;;;;8.48;4.20;;;26.40;60.70;;;;;;5011769;28;20400;-68
2022/08/04 11:10:36;;;;;;;9.02;4.32;;;26.40;60.20;;;;;;5011446;28;20446;-68
2022/08/04 11:13:05;;;;;;;9.13;4.07;;;26.50;60.90;;;;;;5011455;28;20416;-69
2022/08/04 11:15:39;;;;;;;11.52;4.10;;;26.50;60.30;;;;;;5011572;28;20389;-69
2022/08/04 11:18:12;;;;;;;12.27;4.10;;;26.50;60.70;;;;;;5011340;28;20798;-69
2022/08/04 11:20:45;;;;;;;14.63;4.60;;;26.50;61.40;;;;;;5011694;28;20385;-69
2022/08/04 11:23:16;;;;;;;16.08;4.60;;;26.50;61.50;;;;;;5011597;28;20396;-69
2022/08/04 11:26:05;;;;;;;14.20;4.93;;;26.50;61.10;;;;;;5011611;28;20391;-69
2022/08/04 11:29:13;;;;;;;12.80;4.70;;;26.50;60.60;;;;;;5010300;28;20414;-73
2022/08/04 11:31:42;;;;;;;13.95;4.10;;;26.50;60.70;;;;;;5010896;28;20416;-69
2022/08/04 11:34:08;;;;;;;9.75;4.13;;;26.50;60.50;;;;;;5011067;28;20777;-69
2022/08/04 11:36:52;;;;;;;10.43;4.27;;;26.60;60.10;;;;;;5010980;28;20405;-68
2022/08/04 11:39:41;;;;;;;9.98;4.18;;;26.60;60.20;;;;;;5011430;28;20427;-69
2022/08/04 11:42:13;;;;;;;8.73;3.90;;;26.60;60.30;;;;;;4985486;28;20822;-69
2022/08/04 11:44:53;;;;;;;9.98;3.85;;;26.60;60.00;;;;;;5011057;28;20388;-69
2022/08/04 11:47:29;;;;;;;7.90;3.80;;;26.60;60.10;;;;;;5011239;28;20392;-69
2022/08/04 11:50:22;;;;;;;7.63;3.70;;;26.60;60.00;;;;;;5011267;28;20500;-69
2022/08/04 11:52:51;;;;;;;6.38;3.70;;;26.60;60.40;;;;;;5011239;28;20488;-69
2022/08/04 11:55:21;;;;;;;7.22;3.60;;;26.60;60.30;;;;;;5011157;28;20400;-69
2022/08/04 11:57:47;;;;;;;9.37;3.73;;;26.60;60.10;;;;;;5011032;28;20393;-69
2022/08/04 12:00:16;;;;;;;9.98;4.15;;;26.60;60.00;;;;;;5008775;28;20896;-70
2022/08/04 12:03:10;;;;;;;6.50;3.60;;;26.60;60.00;;;;;;5004619;28;20405;-69
2022/08/04 12:05:51;;;;;;;15.63;4.90;;;26.60;60.10;;;;;;5013272;28;20396;-68
2022/08/04 12:08:33;;;;;;;26.37;8.93;;;26.60;61.10;;;;;;5014296;28;20478;-68
2022/08/04 12:11:07;;;;;;;25.85;6.07;;;26.60;60.80;;;;;;5014707;28;20385;-69
2022/08/04 12:13:48;;;;;;;24.40;9.70;;;26.70;61.80;;;;;;5014714;28;20393;-68
2022/08/04 12:16:21;;;;;;;20.98;8.20;;;26.70;61.90;;;;;;5014118;28;20400;-68
2022/08/04 12:18:53;;;;;;;19.25;5.95;;;26.70;62.20;;;;;;5014504;28;20397;-69
2022/08/04 12:21:38;;;;;;;27.67;10.27;;;26.70;61.20;;;;;;5013249;28;20830;-68
2022/08/04 12:24:19;;;;;;;24.50;8.68;;;26.80;62.00;;;;;;4996871;28;20951;-69
2022/08/04 12:26:57;;;;;;;18.63;7.60;;;26.80;62.30;;;;;;4996934;28;20881;-69
2022/08/04 12:29:26;;;;;;;21.52;6.93;;;26.80;62.50;;;;;;5014379;28;20483;-69
2022/08/04 12:32:03;;;;;;;16.88;6.15;;;26.80;62.00;;;;;;5014382;28;20439;-69
2022/08/04 12:34:42;;;;;;;17.42;6.65;;;26.80;60.70;;;;;;5014048;28;20447;-69
2022/08/04 12:37:33;;;;;;;15.02;5.85;;;26.80;61.00;;;;;;5014199;28;20872;-69
2022/08/04 12:40:03;;;;;;;13.40;5.43;;;26.80;60.60;;;;;;5014353;28;20389;-69
2022/08/04 12:42:46;;;;;;;14.93;5.93;;;26.80;60.40;;;;;;5010941;28;20408;-69
2022/08/04 12:45:14;;;;;;;13.30;5.63;;;26.80;60.20;;;;;;4994526;28;20405;-69
2022/08/04 12:47:41;;;;;;;12.20;5.30;;;26.80;60.20;;;;;;4992889;28;20465;-69
2022/08/04 12:50:09;;;;;;;14.25;5.88;;;26.80;60.30;;;;;;4994068;28;20398;-69
2022/08/04 12:52:50;;;;;;;13.68;5.25;;;26.80;60.30;;;;;;4994210;28;20436;-69
2022/08/04 12:55:19;;;;;;;13.77;5.53;;;26.80;60.10;;;;;;4993166;28;20450;-69
2022/08/04 12:57:46;;;;;;;13.38;5.43;;;26.80;60.30;;;;;;5006782;28;20428;-69
2022/08/04 13:00:24;;;;;;;12.65;5.10;;;26.80;60.10;;;;;;5013500;28;20389;-69
2022/08/04 13:02:51;;;;;;;13.20;5.68;;;26.80;60.10;;;;;;5012477;28;20467;-69
2022/08/04 13:05:19;;;;;;;17.65;6.10;;;26.80;60.10;;;;;;4996168;28;20764;-69
2022/08/04 13:07:49;;;;;;;20.83;6.18;;;26.80;60.10;;;;;;4996283;28;20492;-69
2022/08/04 13:10:18;;;;;;;14.45;5.70;;;26.80;60.00;;;;;;5013680;28;20393;-69
2022/08/04 13:12:54;;;;;;;12.88;4.93;;;26.80;60.00;;;;;;5013589;28;20417;-69
2022/08/04 13:15:22;;;;;;;12.73;4.77;;;26.80;60.00;;;;;;5013455;28;20785;-69
2022/08/04 13:18:01;;;;;;;11.00;5.28;;;26.80;60.00;;;;;;5013525;28;20476;-70
2022/08/04 13:20:38;;;;;;;13.70;5.17;;;26.80;59.90;;;;;;4995590;28;20459;-69
2022/08/04 13:23:09;;;;;;;14.05;5.03;;;26.80;59.90;;;;;;4995817;28;20439;-69
2022/08/04 13:25:40;;;;;;;11.85;5.00;;;26.80;59.80;;;;;;4995928;28;20476;-70
2022/08/04 13:28:19;;;;;;;15.65;5.32;;;26.80;59.90;;;;;;5013318;28;20417;-69
2022/08/04 13:30:45;;;;;;;14.23;5.07;;;26.80;59.80;;;;;;5011996;28;20761;-70
2022/08/04 13:33:14;;;;;;;13.18;4.97;;;26.80;59.80;;;;;;4995529;28;20904;-69
2022/08/04 13:35:44;;;;;;;14.95;5.43;;;26.80;59.80;;;;;;5013279;28;20425;-71